Portada
METAR-TAF:

METAR-TAF

Aeroports :

Meixad, Iran

latitud: 36-16N, longitud: 059-38E, altitud: 989 m

Observació

L'informe es va fer fa 47 minuts, a les 01:30 UTC
Vent 4 kt del Nord
Temperatura 23°C
Humitat 33%
Pressió 1020 hPa
Visibilitat 10 km o més
sense núvols per sota de 1500 mi sense presència de cumulonimbus.

METAR: OIMM 270130Z 01004KT CAVOK 23/06 Q1019 A3011

Hora: 06:47 (02:17 UTC)

Pronòstic

L'informe es va fer fa 3 hores i 17 minuts, a les 23:00 UTC
Pronòstic vàlid del 27 a les 00 UTC al 28 a les 06 UTC
Vent 10 kt del Est
Visibilitat: 8000 m
Temporalment
l' 27 a les 09 UTC al 27 a les 16 UTC
Vent 14 kt del Nord amb ràfegues de 24 kt
Escasses núvols a una alçada de 3500 ft

TAF: OIMM 262300Z 2700/2806 08010KT 8000 NSC TEMPO 2709/2716 01014G24KT FEW035

Observacions i pronòstics meteorològics de més de 4000 aeroports (METAR i TAF).

Les estacions disponibles són els punts grocs i vermells al mapa.

Posi el ratolí al punt desitjat per veure el nom de l'estació.

Feu clic per veure les observacions i els pronòstics meteorològics.

Per canviar el mapa: feu clic els botons verds amb una creu de color negre per apropar; al botó verd amb un guió per allunyar la imatge; o en les fletxes verdes per a mapes adjacents.


METAR-TAF: